Toul Rosières Air Base

Airport
ICAO code: 
LFSL
IATA Code: 
BVE
Summary
ICAO Region: 
EUR
Territory: 
Location: 
, Lorraine
Serving: 
Brive
Elevation: 
936 ft
Coordinates: 
Aerial View: 
45° 9' 2.999" N, 1° 28' 9.001" E
Metar
Observation
LFSL 210500Z AUTO 35007KT CAVOK 01/M03 Q1029 NOSIG
Station
Toul / Rosieres
Date/Time
2022-01-21 05:00:00
Wind direction
350°
Wind speed
07 kts
Lowest cloud amount
clouds and visibility OK
Temperature
1°C
Dew point
-3°C
Humidity
74%
QNH
1029 hPa
Weather condition
n/a
Airport map: 
Aerial View: 

SKYbrary Partners:

Safety knowledge contributed by: